sensor_id;sensor_type;location;lat;lon;timestamp;temperature;humidity
24560;DHT22;12727;49.934;8.656;2023-08-12T00:01:48;18.80;99.90
24560;DHT22;12727;49.934;8.656;2023-08-12T00:04:14;18.80;99.90
24560;DHT22;12727;49.934;8.656;2023-08-12T00:06:41;18.90;99.90
24560;DHT22;12727;49.934;8.656;2023-08-12T00:09:07;18.90;99.90
24560;DHT22;12727;49.934;8.656;2023-08-12T00:11:34;18.80;99.90
24560;DHT22;12727;49.934;8.656;2023-08-12T00:14:00;18.70;99.90
24560;DHT22;12727;49.934;8.656;2023-08-12T00:16:26;18.70;99.90
24560;DHT22;12727;49.934;8.656;2023-08-12T00:18:51;18.70;99.90
24560;DHT22;12727;49.934;8.656;2023-08-12T00:21:17;18.80;99.90
24560;DHT22;12727;49.934;8.656;2023-08-12T00:23:42;18.80;99.90
24560;DHT22;12727;49.934;8.656;2023-08-12T00:26:10;18.70;99.90
24560;DHT22;12727;49.934;8.656;2023-08-12T00:28:36;18.70;99.90
24560;DHT22;12727;49.934;8.656;2023-08-12T00:31:02;18.70;99.90
24560;DHT22;12727;49.934;8.656;2023-08-12T00:33:28;18.70;99.90
24560;DHT22;12727;49.934;8.656;2023-08-12T00:35:53;18.70;99.90
24560;DHT22;12727;49.934;8.656;2023-08-12T00:38:19;18.60;99.90
24560;DHT22;12727;49.934;8.656;2023-08-12T00:40:44;18.70;99.90
24560;DHT22;12727;49.934;8.656;2023-08-12T00:43:10;18.70;99.90
24560;DHT22;12727;49.934;8.656;2023-08-12T00:45:36;18.80;99.90
24560;DHT22;12727;49.934;8.656;2023-08-12T00:48:03;18.80;99.90
24560;DHT22;12727;49.934;8.656;2023-08-12T00:50:29;18.90;99.90
24560;DHT22;12727;49.934;8.656;2023-08-12T00:52:55;18.80;99.90
24560;DHT22;12727;49.934;8.656;2023-08-12T00:55:21;18.90;99.90
24560;DHT22;12727;49.934;8.656;2023-08-12T00:57:47;19.00;99.90
24560;DHT22;12727;49.934;8.656;2023-08-12T01:00:13;19.10;99.90
24560;DHT22;12727;49.934;8.656;2023-08-12T01:02:40;19.10;99.90
24560;DHT22;12727;49.934;8.656;2023-08-12T01:05:06;19.00;99.90
24560;DHT22;12727;49.934;8.656;2023-08-12T01:07:32;19.00;99.90
24560;DHT22;12727;49.934;8.656;2023-08-12T01:09:58;18.90;99.90
24560;DHT22;12727;49.934;8.656;2023-08-12T01:12:33;18.80;99.90
24560;DHT22;12727;49.934;8.656;2023-08-12T01:17:32;18.90;99.90
24560;DHT22;12727;49.934;8.656;2023-08-12T01:20:00;19.00;99.90
24560;DHT22;12727;49.934;8.656;2023-08-12T01:22:27;19.00;99.90
24560;DHT22;12727;49.934;8.656;2023-08-12T01:24:55;19.00;99.90
24560;DHT22;12727;49.934;8.656;2023-08-12T01:27:23;19.10;99.90
24560;DHT22;12727;49.934;8.656;2023-08-12T01:29:51;19.10;99.90
24560;DHT22;12727;49.934;8.656;2023-08-12T01:32:32;19.10;99.90
24560;DHT22;12727;49.934;8.656;2023-08-12T01:37:28;19.00;99.90
24560;DHT22;12727;49.934;8.656;2023-08-12T01:39:55;19.00;99.90
24560;DHT22;12727;49.934;8.656;2023-08-12T01:42:23;19.00;99.90
24560;DHT22;12727;49.934;8.656;2023-08-12T01:44:49;19.10;99.90
24560;DHT22;12727;49.934;8.656;2023-08-12T01:47:17;19.10;99.90
24560;DHT22;12727;49.934;8.656;2023-08-12T01:49:42;19.20;99.90
24560;DHT22;12727;49.934;8.656;2023-08-12T01:52:08;19.10;99.90
24560;DHT22;12727;49.934;8.656;2023-08-12T01:54:34;19.00;99.90
24560;DHT22;12727;49.934;8.656;2023-08-12T01:57:04;19.00;99.90
24560;DHT22;12727;49.934;8.656;2023-08-12T01:59:37;19.00;99.90
24560;DHT22;12727;49.934;8.656;2023-08-12T02:02:03;19.00;99.90
24560;DHT22;12727;49.934;8.656;2023-08-12T02:04:29;18.90;99.90
24560;DHT22;12727;49.934;8.656;2023-08-12T02:06:55;19.00;99.90
24560;DHT22;12727;49.934;8.656;2023-08-12T02:09:21;19.00;99.90
24560;DHT22;12727;49.934;8.656;2023-08-12T02:11:48;19.10;99.90
24560;DHT22;12727;49.934;8.656;2023-08-12T02:14:13;19.30;99.90
24560;DHT22;12727;49.934;8.656;2023-08-12T02:16:39;19.30;99.90
24560;DHT22;12727;49.934;8.656;2023-08-12T02:19:04;19.50;99.90
24560;DHT22;12727;49.934;8.656;2023-08-12T02:21:30;19.50;99.90
24560;DHT22;12727;49.934;8.656;2023-08-12T02:23:56;19.50;99.90
24560;DHT22;12727;49.934;8.656;2023-08-12T02:26:21;19.60;99.90
24560;DHT22;12727;49.934;8.656;2023-08-12T02:28:47;19.50;99.90
24560;DHT22;12727;49.934;8.656;2023-08-12T02:31:13;19.50;99.90
24560;DHT22;12727;49.934;8.656;2023-08-12T02:33:39;19.50;99.90
24560;DHT22;12727;49.934;8.656;2023-08-12T02:36:04;19.60;99.90
24560;DHT22;12727;49.934;8.656;2023-08-12T02:38:30;19.60;99.90
24560;DHT22;12727;49.934;8.656;2023-08-12T02:40:56;19.50;99.90
24560;DHT22;12727;49.934;8.656;2023-08-12T02:43:21;19.50;99.90
24560;DHT22;12727;49.934;8.656;2023-08-12T02:45:47;19.50;99.90
24560;DHT22;12727;49.934;8.656;2023-08-12T02:48:12;19.60;99.90
24560;DHT22;12727;49.934;8.656;2023-08-12T02:50:39;19.50;99.90
24560;DHT22;12727;49.934;8.656;2023-08-12T02:53:05;19.60;99.90
24560;DHT22;12727;49.934;8.656;2023-08-12T02:55:31;19.70;99.90
24560;DHT22;12727;49.934;8.656;2023-08-12T02:58:00;19.70;99.90
24560;DHT22;12727;49.934;8.656;2023-08-12T03:00:26;19.80;99.90
24560;DHT22;12727;49.934;8.656;2023-08-12T03:02:52;19.80;99.90
24560;DHT22;12727;49.934;8.656;2023-08-12T03:05:18;19.80;99.90
24560;DHT22;12727;49.934;8.656;2023-08-12T03:07:44;19.80;99.90
24560;DHT22;12727;49.934;8.656;2023-08-12T03:10:10;19.70;99.90
24560;DHT22;12727;49.934;8.656;2023-08-12T03:12:35;19.70;99.90
24560;DHT22;12727;49.934;8.656;2023-08-12T03:15:02;19.60;99.90
24560;DHT22;12727;49.934;8.656;2023-08-12T03:17:28;19.60;99.90
24560;DHT22;12727;49.934;8.656;2023-08-12T03:19:53;19.50;99.90
24560;DHT22;12727;49.934;8.656;2023-08-12T03:22:20;19.30;99.90
24560;DHT22;12727;49.934;8.656;2023-08-12T03:24:46;19.10;99.90
24560;DHT22;12727;49.934;8.656;2023-08-12T03:27:11;19.00;99.90
24560;DHT22;12727;49.934;8.656;2023-08-12T03:29:37;18.90;99.90
24560;DHT22;12727;49.934;8.656;2023-08-12T03:32:03;18.90;99.90
24560;DHT22;12727;49.934;8.656;2023-08-12T03:34:29;19.00;99.90
24560;DHT22;12727;49.934;8.656;2023-08-12T03:36:57;19.00;99.90
24560;DHT22;12727;49.934;8.656;2023-08-12T03:39:22;19.10;99.90
24560;DHT22;12727;49.934;8.656;2023-08-12T03:41:48;19.20;99.90
24560;DHT22;12727;49.934;8.656;2023-08-12T03:44:15;19.30;99.90
24560;DHT22;12727;49.934;8.656;2023-08-12T03:46:41;19.30;99.90
24560;DHT22;12727;49.934;8.656;2023-08-12T03:49:07;19.30;99.90
24560;DHT22;12727;49.934;8.656;2023-08-12T03:51:32;19.30;99.90
24560;DHT22;12727;49.934;8.656;2023-08-12T03:53:58;19.10;99.90
24560;DHT22;12727;49.934;8.656;2023-08-12T03:56:24;19.00;99.90
24560;DHT22;12727;49.934;8.656;2023-08-12T03:58:51;18.90;99.90
24560;DHT22;12727;49.934;8.656;2023-08-12T04:01:17;18.90;99.90
24560;DHT22;12727;49.934;8.656;2023-08-12T04:03:43;19.00;99.90
24560;DHT22;12727;49.934;8.656;2023-08-12T04:06:08;19.00;99.90
24560;DHT22;12727;49.934;8.656;2023-08-12T04:08:34;19.00;99.90
24560;DHT22;12727;49.934;8.656;2023-08-12T04:11:00;19.00;99.90
24560;DHT22;12727;49.934;8.656;2023-08-12T04:13:26;19.10;99.90
24560;DHT22;12727;49.934;8.656;2023-08-12T04:15:52;19.00;99.90
24560;DHT22;12727;49.934;8.656;2023-08-12T04:18:21;19.00;99.90
24560;DHT22;12727;49.934;8.656;2023-08-12T04:20:51;18.90;99.90
24560;DHT22;12727;49.934;8.656;2023-08-12T04:23:18;18.90;99.90
24560;DHT22;12727;49.934;8.656;2023-08-12T04:25:44;19.00;99.90
24560;DHT22;12727;49.934;8.656;2023-08-12T04:28:11;18.90;99.90
24560;DHT22;12727;49.934;8.656;2023-08-12T04:30:47;19.00;99.90
24560;DHT22;12727;49.934;8.656;2023-08-12T04:33:14;19.00;99.90
24560;DHT22;12727;49.934;8.656;2023-08-12T04:35:40;19.00;99.90
24560;DHT22;12727;49.934;8.656;2023-08-12T04:38:06;19.00;99.90
24560;DHT22;12727;49.934;8.656;2023-08-12T04:40:32;19.00;99.90
24560;DHT22;12727;49.934;8.656;2023-08-12T04:42:58;19.10;99.90
24560;DHT22;12727;49.934;8.656;2023-08-12T04:45:24;19.00;99.90
24560;DHT22;12727;49.934;8.656;2023-08-12T04:47:50;19.00;99.90
24560;DHT22;12727;49.934;8.656;2023-08-12T04:50:15;18.90;99.90
24560;DHT22;12727;49.934;8.656;2023-08-12T04:52:41;18.90;99.90
24560;DHT22;12727;49.934;8.656;2023-08-12T04:55:07;19.00;99.90
24560;DHT22;12727;49.934;8.656;2023-08-12T04:57:33;19.00;99.90
24560;DHT22;12727;49.934;8.656;2023-08-12T04:59:59;19.00;99.90
24560;DHT22;12727;49.934;8.656;2023-08-12T05:02:24;18.90;99.90
24560;DHT22;12727;49.934;8.656;2023-08-12T05:04:50;18.90;99.90
24560;DHT22;12727;49.934;8.656;2023-08-12T05:07:16;18.90;99.90
24560;DHT22;12727;49.934;8.656;2023-08-12T05:09:42;18.90;99.90
24560;DHT22;12727;49.934;8.656;2023-08-12T05:12:12;18.90;99.90
24560;DHT22;12727;49.934;8.656;2023-08-12T05:14:39;19.00;99.90
24560;DHT22;12727;49.934;8.656;2023-08-12T05:17:05;19.00;99.90
24560;DHT22;12727;49.934;8.656;2023-08-12T05:19:31;19.00;99.90
24560;DHT22;12727;49.934;8.656;2023-08-12T05:21:57;19.00;99.90
24560;DHT22;12727;49.934;8.656;2023-08-12T05:24:22;18.90;99.90
24560;DHT22;12727;49.934;8.656;2023-08-12T05:26:48;18.90;99.90
24560;DHT22;12727;49.934;8.656;2023-08-12T05:29:13;18.90;99.90
24560;DHT22;12727;49.934;8.656;2023-08-12T05:31:39;19.00;99.90
24560;DHT22;12727;49.934;8.656;2023-08-12T05:34:05;19.10;99.90
24560;DHT22;12727;49.934;8.656;2023-08-12T05:36:30;19.10;99.90
24560;DHT22;12727;49.934;8.656;2023-08-12T05:38:56;19.20;99.90
24560;DHT22;12727;49.934;8.656;2023-08-12T05:41:22;19.20;99.90
24560;DHT22;12727;49.934;8.656;2023-08-12T05:43:48;19.20;99.90
24560;DHT22;12727;49.934;8.656;2023-08-12T05:46:13;19.30;99.90
24560;DHT22;12727;49.934;8.656;2023-08-12T05:48:39;19.30;99.90
24560;DHT22;12727;49.934;8.656;2023-08-12T05:51:05;19.30;99.90
24560;DHT22;12727;49.934;8.656;2023-08-12T05:53:30;19.40;99.90
24560;DHT22;12727;49.934;8.656;2023-08-12T05:55:57;19.50;99.90
24560;DHT22;12727;49.934;8.656;2023-08-12T05:58:22;19.50;99.90
24560;DHT22;12727;49.934;8.656;2023-08-12T06:00:48;19.60;99.90
24560;DHT22;12727;49.934;8.656;2023-08-12T06:03:14;19.70;99.90
24560;DHT22;12727;49.934;8.656;2023-08-12T06:05:40;19.70;99.90
24560;DHT22;12727;49.934;8.656;2023-08-12T06:08:06;19.80;99.90
24560;DHT22;12727;49.934;8.656;2023-08-12T06:10:33;20.10;99.90
24560;DHT22;12727;49.934;8.656;2023-08-12T06:12:59;20.20;99.90
24560;DHT22;12727;49.934;8.656;2023-08-12T06:15:24;20.30;99.90
24560;DHT22;12727;49.934;8.656;2023-08-12T06:17:50;20.40;99.90
24560;DHT22;12727;49.934;8.656;2023-08-12T06:20:16;20.50;99.90
24560;DHT22;12727;49.934;8.656;2023-08-12T06:22:41;20.60;99.90
24560;DHT22;12727;49.934;8.656;2023-08-12T06:25:07;20.70;99.90
24560;DHT22;12727;49.934;8.656;2023-08-12T06:27:33;20.80;99.90
24560;DHT22;12727;49.934;8.656;2023-08-12T06:29:58;21.00;99.90
24560;DHT22;12727;49.934;8.656;2023-08-12T06:32:24;21.10;99.90
24560;DHT22;12727;49.934;8.656;2023-08-12T06:34:50;21.00;99.90
24560;DHT22;12727;49.934;8.656;2023-08-12T06:37:15;21.00;99.90
24560;DHT22;12727;49.934;8.656;2023-08-12T06:39:41;21.00;99.90
24560;DHT22;12727;49.934;8.656;2023-08-12T06:42:06;21.10;99.90
24560;DHT22;12727;49.934;8.656;2023-08-12T06:44:32;21.40;99.90
24560;DHT22;12727;49.934;8.656;2023-08-12T06:46:58;21.80;99.90
24560;DHT22;12727;49.934;8.656;2023-08-12T06:49:23;22.20;99.90
24560;DHT22;12727;49.934;8.656;2023-08-12T06:51:49;22.60;99.90
24560;DHT22;12727;49.934;8.656;2023-08-12T06:54:14;23.00;99.90
24560;DHT22;12727;49.934;8.656;2023-08-12T06:56:40;23.40;99.90
24560;DHT22;12727;49.934;8.656;2023-08-12T06:59:05;23.80;99.90
24560;DHT22;12727;49.934;8.656;2023-08-12T07:01:32;23.70;99.90
24560;DHT22;12727;49.934;8.656;2023-08-12T07:03:57;23.80;99.90
24560;DHT22;12727;49.934;8.656;2023-08-12T07:06:23;24.00;99.90
24560;DHT22;12727;49.934;8.656;2023-08-12T07:08:48;24.70;99.90
24560;DHT22;12727;49.934;8.656;2023-08-12T07:11:14;25.30;99.90
24560;DHT22;12727;49.934;8.656;2023-08-12T07:13:39;25.50;99.90
24560;DHT22;12727;49.934;8.656;2023-08-12T07:16:05;25.40;99.90
24560;DHT22;12727;49.934;8.656;2023-08-12T07:18:30;25.30;99.90
24560;DHT22;12727;49.934;8.656;2023-08-12T07:20:56;25.20;99.90
24560;DHT22;12727;49.934;8.656;2023-08-12T07:23:23;25.00;99.90
24560;DHT22;12727;49.934;8.656;2023-08-12T07:25:49;24.90;99.90
24560;DHT22;12727;49.934;8.656;2023-08-12T07:28:15;24.70;99.90
24560;DHT22;12727;49.934;8.656;2023-08-12T07:30:40;24.80;99.90
24560;DHT22;12727;49.934;8.656;2023-08-12T07:33:06;24.70;99.90
24560;DHT22;12727;49.934;8.656;2023-08-12T07:35:32;25.10;99.90
24560;DHT22;12727;49.934;8.656;2023-08-12T07:37:57;25.30;99.90
24560;DHT22;12727;49.934;8.656;2023-08-12T07:40:23;25.20;99.90
24560;DHT22;12727;49.934;8.656;2023-08-12T07:42:49;25.10;99.90
24560;DHT22;12727;49.934;8.656;2023-08-12T07:45:14;25.30;99.90
24560;DHT22;12727;49.934;8.656;2023-08-12T07:47:40;25.70;99.90
24560;DHT22;12727;49.934;8.656;2023-08-12T07:50:06;25.80;99.90
24560;DHT22;12727;49.934;8.656;2023-08-12T07:52:31;25.70;99.90
24560;DHT22;12727;49.934;8.656;2023-08-12T07:54:57;25.40;99.90
24560;DHT22;12727;49.934;8.656;2023-08-12T07:57:23;25.20;99.90
24560;DHT22;12727;49.934;8.656;2023-08-12T07:59:51;24.90;99.90
24560;DHT22;12727;49.934;8.656;2023-08-12T08:02:17;24.90;99.90
24560;DHT22;12727;49.934;8.656;2023-08-12T08:04:42;24.70;99.90
24560;DHT22;12727;49.934;8.656;2023-08-12T08:07:08;24.70;99.90
24560;DHT22;12727;49.934;8.656;2023-08-12T08:09:34;24.60;99.90
24560;DHT22;12727;49.934;8.656;2023-08-12T08:12:00;24.40;99.90
24560;DHT22;12727;49.934;8.656;2023-08-12T08:14:26;24.40;99.90
24560;DHT22;12727;49.934;8.656;2023-08-12T08:16:53;24.50;99.90
24560;DHT22;12727;49.934;8.656;2023-08-12T08:19:18;24.60;99.90
24560;DHT22;12727;49.934;8.656;2023-08-12T08:21:44;24.60;99.90
24560;DHT22;12727;49.934;8.656;2023-08-12T08:24:10;24.60;99.90
24560;DHT22;12727;49.934;8.656;2023-08-12T08:26:38;24.70;99.90
24560;DHT22;12727;49.934;8.656;2023-08-12T08:29:06;25.30;99.90
24560;DHT22;12727;49.934;8.656;2023-08-12T08:31:32;25.60;99.90
24560;DHT22;12727;49.934;8.656;2023-08-12T08:33:57;26.00;99.90
24560;DHT22;12727;49.934;8.656;2023-08-12T08:36:23;26.10;99.90
24560;DHT22;12727;49.934;8.656;2023-08-12T08:38:50;25.90;99.90
24560;DHT22;12727;49.934;8.656;2023-08-12T08:41:16;25.70;99.90
24560;DHT22;12727;49.934;8.656;2023-08-12T08:43:43;25.90;99.90
24560;DHT22;12727;49.934;8.656;2023-08-12T08:46:14;26.20;99.90
24560;DHT22;12727;49.934;8.656;2023-08-12T08:48:42;26.70;99.90
24560;DHT22;12727;49.934;8.656;2023-08-12T08:51:09;26.70;99.90
24560;DHT22;12727;49.934;8.656;2023-08-12T08:53:39;26.80;99.90
24560;DHT22;12727;49.934;8.656;2023-08-12T08:56:07;27.10;99.90
24560;DHT22;12727;49.934;8.656;2023-08-12T08:58:33;27.10;99.90
24560;DHT22;12727;49.934;8.656;2023-08-12T09:00:59;27.80;99.90
24560;DHT22;12727;49.934;8.656;2023-08-12T09:03:25;27.60;99.90
24560;DHT22;12727;49.934;8.656;2023-08-12T09:05:53;27.60;99.90
24560;DHT22;12727;49.934;8.656;2023-08-12T09:08:20;27.40;99.90
24560;DHT22;12727;49.934;8.656;2023-08-12T09:10:47;27.20;99.90
24560;DHT22;12727;49.934;8.656;2023-08-12T09:13:13;26.90;99.90
24560;DHT22;12727;49.934;8.656;2023-08-12T09:15:40;26.40;99.90
24560;DHT22;12727;49.934;8.656;2023-08-12T09:18:06;26.10;99.90
24560;DHT22;12727;49.934;8.656;2023-08-12T09:20:33;26.10;99.90
24560;DHT22;12727;49.934;8.656;2023-08-12T09:22:59;26.10;99.90
24560;DHT22;12727;49.934;8.656;2023-08-12T09:25:26;26.00;99.90
24560;DHT22;12727;49.934;8.656;2023-08-12T09:27:54;26.30;99.90
24560;DHT22;12727;49.934;8.656;2023-08-12T09:30:20;26.20;99.90
24560;DHT22;12727;49.934;8.656;2023-08-12T09:33:01;26.40;99.90
24560;DHT22;12727;49.934;8.656;2023-08-12T09:35:36;26.30;99.90
24560;DHT22;12727;49.934;8.656;2023-08-12T09:38:12;26.20;99.90
24560;DHT22;12727;49.934;8.656;2023-08-12T09:40:39;26.70;99.90
24560;DHT22;12727;49.934;8.656;2023-08-12T09:43:05;27.20;99.90
24560;DHT22;12727;49.934;8.656;2023-08-12T09:45:32;27.20;99.90
24560;DHT22;12727;49.934;8.656;2023-08-12T09:47:58;27.60;99.90
24560;DHT22;12727;49.934;8.656;2023-08-12T09:50:27;27.50;99.90
24560;DHT22;12727;49.934;8.656;2023-08-12T09:52:54;27.50;99.90
24560;DHT22;12727;49.934;8.656;2023-08-12T09:55:22;27.20;99.90
24560;DHT22;12727;49.934;8.656;2023-08-12T09:57:50;26.80;99.90
24560;DHT22;12727;49.934;8.656;2023-08-12T10:00:21;26.50;99.90
24560;DHT22;12727;49.934;8.656;2023-08-12T10:02:48;26.30;99.90
24560;DHT22;12727;49.934;8.656;2023-08-12T10:05:33;26.00;99.90
24560;DHT22;12727;49.934;8.656;2023-08-12T10:07:59;25.90;99.90
24560;DHT22;12727;49.934;8.656;2023-08-12T10:10:30;25.70;99.90
24560;DHT22;12727;49.934;8.656;2023-08-12T10:12:55;25.70;99.90
24560;DHT22;12727;49.934;8.656;2023-08-12T10:15:21;25.70;99.90
24560;DHT22;12727;49.934;8.656;2023-08-12T10:17:48;25.50;99.90
24560;DHT22;12727;49.934;8.656;2023-08-12T10:20:20;25.50;99.90
24560;DHT22;12727;49.934;8.656;2023-08-12T10:22:47;25.20;99.90
24560;DHT22;12727;49.934;8.656;2023-08-12T10:25:14;25.10;99.90
24560;DHT22;12727;49.934;8.656;2023-08-12T10:27:41;24.90;99.90
24560;DHT22;12727;49.934;8.656;2023-08-12T10:30:07;24.60;99.90
24560;DHT22;12727;49.934;8.656;2023-08-12T10:32:33;24.10;99.90
24560;DHT22;12727;49.934;8.656;2023-08-12T10:35:00;23.50;99.90
24560;DHT22;12727;49.934;8.656;2023-08-12T10:37:26;22.90;99.90
24560;DHT22;12727;49.934;8.656;2023-08-12T10:39:53;22.70;99.90
24560;DHT22;12727;49.934;8.656;2023-08-12T10:42:51;22.60;99.90
24560;DHT22;12727;49.934;8.656;2023-08-12T10:45:17;22.60;99.90
24560;DHT22;12727;49.934;8.656;2023-08-12T10:48:10;22.50;99.90
24560;DHT22;12727;49.934;8.656;2023-08-12T10:50:44;22.40;99.90
24560;DHT22;12727;49.934;8.656;2023-08-12T10:53:24;22.40;99.90
24560;DHT22;12727;49.934;8.656;2023-08-12T10:55:57;22.30;99.90
24560;DHT22;12727;49.934;8.656;2023-08-12T10:58:37;22.20;99.90
24560;DHT22;12727;49.934;8.656;2023-08-12T11:01:11;22.10;99.90
24560;DHT22;12727;49.934;8.656;2023-08-12T11:03:38;22.00;99.90
24560;DHT22;12727;49.934;8.656;2023-08-12T11:06:10;21.90;99.90
24560;DHT22;12727;49.934;8.656;2023-08-12T11:08:36;21.80;99.90
24560;DHT22;12727;49.934;8.656;2023-08-12T11:11:02;21.80;99.90
24560;DHT22;12727;49.934;8.656;2023-08-12T11:13:28;21.60;99.90
24560;DHT22;12727;49.934;8.656;2023-08-12T11:16:05;21.60;99.90
24560;DHT22;12727;49.934;8.656;2023-08-12T11:18:32;21.40;99.90
24560;DHT22;12727;49.934;8.656;2023-08-12T11:20:58;21.40;99.90
24560;DHT22;12727;49.934;8.656;2023-08-12T11:23:24;21.30;99.90
24560;DHT22;12727;49.934;8.656;2023-08-12T11:25:50;21.20;99.90
24560;DHT22;12727;49.934;8.656;2023-08-12T11:28:18;21.20;99.90
24560;DHT22;12727;49.934;8.656;2023-08-12T11:30:45;21.10;99.90
24560;DHT22;12727;49.934;8.656;2023-08-12T11:33:11;21.00;99.90
24560;DHT22;12727;49.934;8.656;2023-08-12T11:35:37;21.10;99.90
24560;DHT22;12727;49.934;8.656;2023-08-12T11:38:05;21.10;99.90
24560;DHT22;12727;49.934;8.656;2023-08-12T11:40:30;21.10;99.90
24560;DHT22;12727;49.934;8.656;2023-08-12T11:42:56;21.00;99.90
24560;DHT22;12727;49.934;8.656;2023-08-12T11:45:25;21.00;99.90
24560;DHT22;12727;49.934;8.656;2023-08-12T11:47:52;21.00;99.90
24560;DHT22;12727;49.934;8.656;2023-08-12T11:50:26;20.90;99.90
24560;DHT22;12727;49.934;8.656;2023-08-12T11:52:52;20.90;99.90
24560;DHT22;12727;49.934;8.656;2023-08-12T11:55:22;20.90;99.90
24560;DHT22;12727;49.934;8.656;2023-08-12T11:57:48;20.80;99.90
24560;DHT22;12727;49.934;8.656;2023-08-12T12:00:14;20.80;99.90
24560;DHT22;12727;49.934;8.656;2023-08-12T12:02:49;20.80;99.90
24560;DHT22;12727;49.934;8.656;2023-08-12T12:05:16;20.80;99.90
24560;DHT22;12727;49.934;8.656;2023-08-12T12:07:42;20.80;99.90
24560;DHT22;12727;49.934;8.656;2023-08-12T12:10:13;20.90;99.90
24560;DHT22;12727;49.934;8.656;2023-08-12T12:12:38;20.90;99.90
24560;DHT22;12727;49.934;8.656;2023-08-12T12:15:04;20.90;99.90
24560;DHT22;12727;49.934;8.656;2023-08-12T12:17:30;20.90;99.90
24560;DHT22;12727;49.934;8.656;2023-08-12T12:20:00;20.90;99.90
24560;DHT22;12727;49.934;8.656;2023-08-12T12:22:28;20.90;99.90
24560;DHT22;12727;49.934;8.656;2023-08-12T12:24:54;20.90;99.90
24560;DHT22;12727;49.934;8.656;2023-08-12T12:27:19;21.00;99.90
24560;DHT22;12727;49.934;8.656;2023-08-12T12:29:45;21.00;99.90
24560;DHT22;12727;49.934;8.656;2023-08-12T12:32:11;21.10;99.90
24560;DHT22;12727;49.934;8.656;2023-08-12T12:34:36;21.20;99.90
24560;DHT22;12727;49.934;8.656;2023-08-12T12:37:02;21.30;99.90
24560;DHT22;12727;49.934;8.656;2023-08-12T12:39:27;21.30;99.90
24560;DHT22;12727;49.934;8.656;2023-08-12T12:41:53;21.50;99.90
24560;DHT22;12727;49.934;8.656;2023-08-12T12:44:19;21.60;99.90
24560;DHT22;12727;49.934;8.656;2023-08-12T12:46:45;21.70;99.90
24560;DHT22;12727;49.934;8.656;2023-08-12T12:49:10;21.90;99.90
24560;DHT22;12727;49.934;8.656;2023-08-12T12:51:36;22.20;99.90
24560;DHT22;12727;49.934;8.656;2023-08-12T12:54:01;22.30;99.90
24560;DHT22;12727;49.934;8.656;2023-08-12T12:56:27;22.50;99.90
24560;DHT22;12727;49.934;8.656;2023-08-12T12:58:53;22.70;99.90
24560;DHT22;12727;49.934;8.656;2023-08-12T13:01:18;23.00;99.90
24560;DHT22;12727;49.934;8.656;2023-08-12T13:03:44;23.30;99.90
24560;DHT22;12727;49.934;8.656;2023-08-12T13:06:09;23.50;99.90
24560;DHT22;12727;49.934;8.656;2023-08-12T13:08:35;23.80;99.90
24560;DHT22;12727;49.934;8.656;2023-08-12T13:11:01;23.70;99.90
24560;DHT22;12727;49.934;8.656;2023-08-12T13:13:26;23.60;99.90
24560;DHT22;12727;49.934;8.656;2023-08-12T13:15:52;23.50;99.90
24560;DHT22;12727;49.934;8.656;2023-08-12T13:18:17;23.50;99.90
24560;DHT22;12727;49.934;8.656;2023-08-12T13:20:43;23.60;99.90
24560;DHT22;12727;49.934;8.656;2023-08-12T13:23:09;23.80;99.90
24560;DHT22;12727;49.934;8.656;2023-08-12T13:25:34;23.70;99.90
24560;DHT22;12727;49.934;8.656;2023-08-12T13:28:01;23.70;99.90
24560;DHT22;12727;49.934;8.656;2023-08-12T13:30:27;23.80;99.90
24560;DHT22;12727;49.934;8.656;2023-08-12T13:32:54;23.70;99.90
24560;DHT22;12727;49.934;8.656;2023-08-12T13:35:20;23.90;99.90
24560;DHT22;12727;49.934;8.656;2023-08-12T13:37:46;23.90;99.90
24560;DHT22;12727;49.934;8.656;2023-08-12T13:40:11;23.90;99.90
24560;DHT22;12727;49.934;8.656;2023-08-12T13:42:38;24.00;99.90
24560;DHT22;12727;49.934;8.656;2023-08-12T13:45:04;24.10;99.90
24560;DHT22;12727;49.934;8.656;2023-08-12T13:47:30;24.20;99.90
24560;DHT22;12727;49.934;8.656;2023-08-12T13:49:56;24.20;99.90
24560;DHT22;12727;49.934;8.656;2023-08-12T13:52:21;24.20;99.90
24560;DHT22;12727;49.934;8.656;2023-08-12T13:54:47;24.30;99.90
24560;DHT22;12727;49.934;8.656;2023-08-12T13:57:12;24.30;99.90
24560;DHT22;12727;49.934;8.656;2023-08-12T13:59:38;24.40;99.90
24560;DHT22;12727;49.934;8.656;2023-08-12T14:02:06;24.50;99.90
24560;DHT22;12727;49.934;8.656;2023-08-12T14:04:31;24.60;99.90
24560;DHT22;12727;49.934;8.656;2023-08-12T14:06:57;24.60;99.90
24560;DHT22;12727;49.934;8.656;2023-08-12T14:09:22;24.60;99.90
24560;DHT22;12727;49.934;8.656;2023-08-12T14:11:48;24.60;99.90
24560;DHT22;12727;49.934;8.656;2023-08-12T14:14:14;24.60;99.90
24560;DHT22;12727;49.934;8.656;2023-08-12T14:16:39;24.50;99.90
24560;DHT22;12727;49.934;8.656;2023-08-12T14:19:05;24.60;99.90
24560;DHT22;12727;49.934;8.656;2023-08-12T14:21:30;24.60;99.90
24560;DHT22;12727;49.934;8.656;2023-08-12T14:23:56;24.70;99.90
24560;DHT22;12727;49.934;8.656;2023-08-12T14:26:22;24.70;99.90
24560;DHT22;12727;49.934;8.656;2023-08-12T14:28:47;24.80;99.90
24560;DHT22;12727;49.934;8.656;2023-08-12T14:31:13;24.90;99.90
24560;DHT22;12727;49.934;8.656;2023-08-12T14:33:38;25.00;99.90
24560;DHT22;12727;49.934;8.656;2023-08-12T14:36:04;25.30;99.90
24560;DHT22;12727;49.934;8.656;2023-08-12T14:38:30;25.40;99.90
24560;DHT22;12727;49.934;8.656;2023-08-12T14:40:55;25.30;99.90
24560;DHT22;12727;49.934;8.656;2023-08-12T14:43:21;25.20;99.90
24560;DHT22;12727;49.934;8.656;2023-08-12T14:45:46;25.20;99.90
24560;DHT22;12727;49.934;8.656;2023-08-12T14:48:12;25.10;99.90
24560;DHT22;12727;49.934;8.656;2023-08-12T14:50:40;25.00;99.90
24560;DHT22;12727;49.934;8.656;2023-08-12T14:53:06;25.10;99.90
24560;DHT22;12727;49.934;8.656;2023-08-12T14:55:31;25.10;99.90
24560;DHT22;12727;49.934;8.656;2023-08-12T14:57:57;25.10;99.90
24560;DHT22;12727;49.934;8.656;2023-08-12T15:00:22;25.00;99.90
24560;DHT22;12727;49.934;8.656;2023-08-12T15:02:48;24.90;99.90
24560;DHT22;12727;49.934;8.656;2023-08-12T15:05:13;25.00;99.90
24560;DHT22;12727;49.934;8.656;2023-08-12T15:07:39;24.90;99.90
24560;DHT22;12727;49.934;8.656;2023-08-12T15:10:05;25.00;99.90
24560;DHT22;12727;49.934;8.656;2023-08-12T15:12:30;24.90;99.90
24560;DHT22;12727;49.934;8.656;2023-08-12T15:14:56;25.00;99.90
24560;DHT22;12727;49.934;8.656;2023-08-12T15:17:22;25.20;99.90
24560;DHT22;12727;49.934;8.656;2023-08-12T15:19:48;25.30;99.90
24560;DHT22;12727;49.934;8.656;2023-08-12T15:22:13;25.30;99.90
24560;DHT22;12727;49.934;8.656;2023-08-12T15:24:39;25.40;99.90
24560;DHT22;12727;49.934;8.656;2023-08-12T15:27:05;25.30;99.90
24560;DHT22;12727;49.934;8.656;2023-08-12T15:29:30;25.30;99.90
24560;DHT22;12727;49.934;8.656;2023-08-12T15:31:56;25.10;99.90